Decoded Metar for KIXA ( in ) (IATA:) | Meteo·Mobile Aviation Weather
aviador You're here:

KIXA Decoded Metar

in
Report Time2019-02-17 15:05:00
UTC Time2019-02-17 15:29:44
Flight Rules vfr VFR
WindCalm
Visibility9999 m
Phenomena:N/A
Clouds:N/A
Expected CloudBase > 800 ft AGL from Temp-Dew spread
CeilingNone
Temp03°C
Dew Point01°C (87% RH)
AAT1.2°C
QNH1019 hPa
Raw Report
METAR KIXA 171505Z AUTO 00000KT 10SM CLR 03/01 A3010 RMK AO2=

Extra information for KIXA:More info

Social comments